Aviation Digital Data Service (ADDS)

Output produced by METARs form (1334 UTC 26 May 2018)
found at http://www.aviationweather.gov/adds/metars/
 
TAF SBAT 261000Z 2612/2624 15005KT 9999 FEW030 TN26/2612Z TX31/2617Z 
     BECMG 2615/2617 18005KT 
     BECMG 2621/2623 15005KT RMK PEH
       
TAF SBAN 261000Z 2612/2624 10008KT 9999 FEW017 TX24/2616Z TN20/2623Z 
     PROB30 2612/2613 3000 BR SCT006 
     BECMG 2613/2615 9999 SCT030 
     BECMG 2620/2622 11005KT CAVOK RMK PDS
       
TAF SBAR 261000Z 2612/2624 15010KT 8000 SCT015 TX29/2615Z TN27/2623Z 
     PROB30 
     TEMPO 2613/2614 5000 SHRA SCT012 BKN017 RMK PEI
       
TAF SBBG 251530Z 2518/2618 07006KT CAVOK TN07/2608Z TX23/2618Z 
     PROB40 2608/2612 00000KT 2000 BCFG FEW002 RMK PER
       
TAF SBBW 261000Z 2612/2624 09005KT CAVOK TN23/2612Z TX31/2618Z 
     PROB30 2618/2621 11004KT 9999 SCT020 RMK PDS
       
TAF SBBU 260915Z 2612/2624 12008KT CAVOK TN19/2612Z TX27/2618Z RMK PCX
       
TAF SBBE 261000Z 2612/2712 09005KT 9999 FEW017 TX30/2616Z TN24/2706Z 
     BECMG 2615/2617 36010KT BKN025 FEW030TCU 
     PROB30 
     TEMPO 2618/2620 3000 TSRA BKN020 FEW030CB 
     BECMG 2622/2624 06005KT FEW025 RMK PEH
       
TAF SBCF 261000Z 2612/2712 09010KT 9999 BKN025 TX23/2616Z TN14/2709Z 
     PROB30 2615/2618 RA BKN015 
     BECMG 2516/2517 SCT030 
     BECMG 2618/2620 11008KT 8000 NSC 
     BECMG 2708/2712 10005KT BKN005 RMK P DS
       
TAF SBBV 261000Z 2612/2712 06010KT 9999 SCT015 TX31/2618Z TN26/2707Z 
     BECMG 2615/2617 09008KT BKN035 FEW040TCU 
     PROB30 2619/2621 TS BKN025 FEW030 CB 
     BECMG 2622/2624 12005KT RMK PEH
       
TAF SBLP 261000Z 2612/2624 20005KT 9999 SCT030 TN27/2612Z TX34/2619Z RMK PEI
       
TAF SBBR 261000Z 2612/2712 09005KT 9999 FEW018 TX24/2618Z TN14/2708Z 
     BECMG 2614/2616 SCT035 
     PROB30 2615/2619 11005KT SCT035 FEW045TCU 
     BECMG 2621/2623 12006KT CAVOK RMK PDS
       
TAF SBCB 260800Z 2612/2712 25010KT 9999 BKN015 TX27/2618Z TN22/2709Z 
     BECMG 2614/2616 27010KT SCT025 
     BECMG 2618/2620 15005KT 
     BECMG 2700/2702 260 05KT RMK PGZ
       
TAF SBKG 261000Z 2612/2624 13009KT 9999 SCT020 TX27/2617Z TN22/2622Z 
     BECMG 2620/2621 CAVOK RMK PEI
       
TAF SBKP 261011Z 2612/2712 12010KT CAVOK TX25/2618Z TN13/2708Z 
     BECMG 2613/2615 06005KT 
     TEMPO 2616/2620 35007KT FEW035 
     BECMG 2620/2622 14010KT 
     BECMG 2700/2702 12007KT RMK PGN
       
TAF SBCG 260915Z 2612/2712 08009KT CAVOK TX30/2618Z TN18/2708Z 
     BECMG 2613/2615 05010KT 9999 FEW035 
     BECMG 2620/2622 08008KT CAVOK RMK PCX
       
TAF SBCP 260800Z 2612/2624 21005KT 9999 FEW020 TX25/2618Z TN21/2623Z 
     BECMG 2614/2616 19008KT SCT020 
     BECMG 2621/2623 14005KT RMK PGZ
       
TAF SBCR 260915Z 2612/2712 05005KT CAVOK TX30/2618Z TN18/2708Z 
     BECMG 2620/2622 09005KT RMK PCX
       
TAF SBCZ 261000Z 2612/2712 12005KT 9999 FEW015 TX30/2617Z TN23/2708Z 
     BECMG 2615/2617 16005KT SCT030 
     BECMG 2622/2624 00000KT CAVOK RMK PEH
       
TAF SBCY 261000Z 2612/2712 18005KT CAVOK TX30/2618Z TN24/2708Z 
     BECMG 2615/2617 15005KT 
     BECMG 2622/2624 18003KT RMK PEH
       
TAF SBCT 260915Z 2612/2712 09006KT 9999 OVC006 TX19/2617Z TN11/2706Z 
     BECMG 2612/2614 BKN008 BKN013 
     BECMG 2614/2616 BKN020 
     BECMG 2616/2618 SCT02 5 
     BECMG 2623/2701 BKN006 
     PROB40 2708/2711 04005KT 0600 FG OVC002 RMK P CX
       
TAF SBBI 260915Z 2612/2624 07006KT 9999 OVC006 TX19/2617Z TN12/2624Z 
     BECMG 2612/2614 BKN008 BKN013 
     BECMG 2614/2616 09006KT BKN020 
     BECMG 2616/2618 SCT025 RMK PCX
       
TAF SBFN 261000Z 2612/2624 14011KT 7000 SCT010 BKN017 TX28/2615Z TN25 /2623Z 
     PROB30 
     TEMPO 2612/2614 5000 SHRA 
     BECMG 2616/1618 SCT025 
     PROB40 
     TEMPO 2620/2622 4000 SHRA BKN012 RMK PEI
       
TAF SBFL 260915Z 2612/2712 35003KT 9999 SCT040 TX22/2618Z TN18/2708Z 
     BECMG 2613/2615 01008KT 
     PROB30 
     TEMPO 2621/2701 4000 RA SCT015 BKN025 
     BECMG 2703/2705 33005KT 
     PROB40 2708/2711 4000 BR RMK PCX
       
TAF SBFZ 261000Z 2612/2712 12009KT 8000 BKN015 FEW025TCU TX30/2615Z TN25/2708Z 
     BECMG 2614/2615 09009KT SCT025 
     BECMG 2622/2624 15007KT 
     PROB30 
     TEMPO 2701/2703 5000 SHRA SCT012 BKN017 
     BECMG 2704/2705 19005KT 
     PROB30 
     TEMPO 2708/2710 5000 SHRA SCT012 BKN017 RMK PEI
       
TAF SBFI 260915Z 2612/2712 10006KT CAVOK TX26/2618Z TN15/2708Z 
     PROB40 2709/2711 5000 BR RMK PCX
       
TAF SBGO 261000Z 2612/2712 10006KT CAVOK TX27/2617Z TN16/2708Z 
     PROB30 2615/2619 9999 FEW030 
     BECMG 2623/2701 13004KT CAVOK 
     BECMG 2701 /2703 15005KT RMK PDS
       
TAF SBGW 260915Z 2612/2624 06006KT 6000 SCT012 BKN020 TN18/2612Z TX26/2617Z 
     BECMG 2612/2614 15006KT 9999 NSW SCT030 
     BECMG 2619/2621 09004KT BKN025 RMK PCX
       
TAF SBIL 261000Z 2612/2624 20007KT 7000 SCT010 BKN017 TX26/2616Z TN24/2623Z 
     TEMPO 2612/2614 5000 RA 
     BECMG 2615/2616 17009KT SCT023 
     PROB30 
     TEMPO 2620/2622 4000 SHRA SCT010 BKN016 RMK PEI
       
TAF SBIZ 261000Z 2612/2624 12005KT 9999 FEW020 TN28/2612Z TX31/2617Z 
     BECMG 2615/2617 07005KT SCT025 
     BECMG 2621/2623 00000KT CAVOK RMK PEH
       
TAF SBIH 261000Z 2612/2624 03005KT 9999 FEW015 TN25/2612Z TX31/2618Z 
     BECMG 2615/2617 06005KT SCT020 FEW025TCU 
     PROB30 2618/2620 TS SCT020 FEW025CB 
     BECMG 2621/2623 00000KT FEW015 RMK PEH